Yongchuan, China
Current Conditions -  °F | °C
As of 7:00 AM on Tuesday 23 Dec 2014 (Local Time) from ZUCK Reporting Station
Haze Haze  
Wind Chill: 42°   Ceiling: Unl
Heat Index: 45°   Visibility: 1.1mi
Dew Point: 41°   Wind: 4mph
Humidity: 87%   Direction: 200°SSW
Pressure: 30.21"   Gusts: NA
Location:  29.37°N, 105.98°E
Report Text: ZUCK 222300Z 20002MPS 170V230 1800 BR FEW010 07/05 Q1023 BECMGTL00503000
Loading
Personal Weather Stations






























Interactive Weather Map New forecast layout! Learn more

10-Day Weather Forecast

Advertisements
Track Severe Weather on mobile